Terminal Aerodrome Forecast
Issued by NWS

Home | Current Version | Previous Version | Text Only | Print | Product List | Glossary Off
Versions: 1 2 3 4 5 6 7 8 9 10 11 12 13 14 15 16 17 18 19 20 21 22 23 24 25 26 27 28

000
FTUS45 KGGW 222300
TAFOLF
TAF
KOLF 222320Z 2300/2324 VRB05KT P6SM SCT080
     FM230300 09006KT P6SM BKN100
     FM231600 10012G22KT P6SM SCT100
     FM232000 12015G25KT P6SM SCT100=

USA.gov is the U.S. government's official web portal to all federal, state and local government web resources and services.